sensor_id;sensor_type;location;lat;lon;timestamp;pressure;altitude;pressure_sealevel;temperature;humidity
71774;BME280;59607;52.130;5.430;2023-02-19T00:01:13;101822.91;;;10.02;100.00
71774;BME280;59607;52.130;5.430;2023-02-19T00:03:41;101818.63;;;10.00;100.00
71774;BME280;59607;52.130;5.430;2023-02-19T00:06:10;101818.63;;;10.00;100.00
71774;BME280;59607;52.130;5.430;2023-02-19T00:08:37;101817.91;;;9.98;100.00
71774;BME280;59607;52.130;5.430;2023-02-19T00:11:07;101823.16;;;9.98;100.00
71774;BME280;59607;52.130;5.430;2023-02-19T00:13:46;101822.31;;;9.98;100.00
71774;BME280;59607;52.130;5.430;2023-02-19T00:16:23;101815.31;;;9.98;100.00
71774;BME280;59607;52.130;5.430;2023-02-19T00:18:51;101828.28;;;10.00;100.00
71774;BME280;59607;52.130;5.430;2023-02-19T00:21:21;101824.81;;;9.99;100.00
71774;BME280;59607;52.130;5.430;2023-02-19T00:24:02;101829.25;;;9.99;100.00
71774;BME280;59607;52.130;5.430;2023-02-19T00:26:30;101831.88;;;9.99;100.00
71774;BME280;59607;52.130;5.430;2023-02-19T00:29:00;101835.44;;;9.98;100.00
71774;BME280;59607;52.130;5.430;2023-02-19T00:31:31;101833.66;;;9.98;100.00
71774;BME280;59607;52.130;5.430;2023-02-19T00:34:03;101836.41;;;9.97;100.00
71774;BME280;59607;52.130;5.430;2023-02-19T00:36:36;101838.19;;;9.96;100.00
71774;BME280;59607;52.130;5.430;2023-02-19T00:39:25;101832.94;;;9.96;100.00
71774;BME280;59607;52.130;5.430;2023-02-19T00:41:51;101829.50;;;9.96;100.00
71774;BME280;59607;52.130;5.430;2023-02-19T00:44:17;101838.06;;;9.98;100.00
71774;BME280;59607;52.130;5.430;2023-02-19T00:46:45;101842.50;;;9.97;100.00
71774;BME280;59607;52.130;5.430;2023-02-19T00:49:20;101844.13;;;9.98;100.00
71774;BME280;59607;52.130;5.430;2023-02-19T00:51:56;101840.00;;;9.96;100.00
71774;BME280;59607;52.130;5.430;2023-02-19T00:54:22;101844.28;;;9.97;100.00
71774;BME280;59607;52.130;5.430;2023-02-19T00:56:49;101836.41;;;9.97;100.00
71774;BME280;59607;52.130;5.430;2023-02-19T00:59:16;101842.50;;;9.97;100.00
71774;BME280;59607;52.130;5.430;2023-02-19T01:01:45;101835.44;;;9.98;100.00
71774;BME280;59607;52.130;5.430;2023-02-19T01:04:14;101838.19;;;9.96;100.00
71774;BME280;59607;52.130;5.430;2023-02-19T01:06:46;101843.56;;;9.95;100.00
71774;BME280;59607;52.130;5.430;2023-02-19T01:09:14;101846.19;;;9.95;100.00
71774;BME280;59607;52.130;5.430;2023-02-19T01:11:43;101846.19;;;9.95;100.00
71774;BME280;59607;52.130;5.430;2023-02-19T01:14:13;101848.94;;;9.93;100.00
71774;BME280;59607;52.130;5.430;2023-02-19T01:16:40;101860.13;;;9.95;100.00
71774;BME280;59607;52.130;5.430;2023-02-19T01:19:20;101860.13;;;9.95;100.00
71774;BME280;59607;52.130;5.430;2023-02-19T01:21:49;101857.63;;;9.94;100.00
71774;BME280;59607;52.130;5.430;2023-02-19T01:24:19;101873.22;;;9.95;100.00
71774;BME280;59607;52.130;5.430;2023-02-19T01:26:48;101868.25;;;9.92;100.00
71774;BME280;59607;52.130;5.430;2023-02-19T01:29:19;101871.94;;;9.90;100.00
71774;BME280;59607;52.130;5.430;2023-02-19T01:31:47;101878.88;;;9.91;100.00
71774;BME280;59607;52.130;5.430;2023-02-19T01:34:19;101881.34;;;9.92;100.00
71774;BME280;59607;52.130;5.430;2023-02-19T01:36:45;101876.38;;;9.89;100.00
71774;BME280;59607;52.130;5.430;2023-02-19T01:39:12;101879.94;;;9.88;100.00
71774;BME280;59607;52.130;5.430;2023-02-19T01:41:44;101875.53;;;9.88;100.00
71774;BME280;59607;52.130;5.430;2023-02-19T01:46:47;101873.91;;;9.87;100.00
71774;BME280;59607;52.130;5.430;2023-02-19T01:49:20;101875.09;;;9.83;100.00
71774;BME280;59607;52.130;5.430;2023-02-19T01:52:11;101879.66;;;9.81;100.00
71774;BME280;59607;52.130;5.430;2023-02-19T01:54:41;101879.78;;;9.80;100.00
71774;BME280;59607;52.130;5.430;2023-02-19T01:57:16;101882.38;;;9.80;100.00
71774;BME280;59607;52.130;5.430;2023-02-19T01:59:46;101881.59;;;9.79;100.00
71774;BME280;59607;52.130;5.430;2023-02-19T02:02:15;101877.16;;;9.80;100.00
71774;BME280;59607;52.130;5.430;2023-02-19T02:04:41;101877.41;;;9.77;100.00
71774;BME280;59607;52.130;5.430;2023-02-19T02:07:18;101875.91;;;9.74;100.00
71774;BME280;59607;52.130;5.430;2023-02-19T02:10:14;101877.69;;;9.73;100.00
71774;BME280;59607;52.130;5.430;2023-02-19T02:12:47;101870.94;;;9.71;100.00
71774;BME280;59607;52.130;5.430;2023-02-19T02:15:19;101878.06;;;9.69;100.00
71774;BME280;59607;52.130;5.430;2023-02-19T02:17:56;101880.81;;;9.67;100.00
71774;BME280;59607;52.130;5.430;2023-02-19T02:20:41;101882.50;;;9.68;100.00
71774;BME280;59607;52.130;5.430;2023-02-19T02:23:31;101884.41;;;9.66;100.00
71774;BME280;59607;52.130;5.430;2023-02-19T02:32:02;101891.56;;;9.64;100.00
71774;BME280;59607;52.130;5.430;2023-02-19T02:34:42;101893.47;;;9.62;100.00
71774;BME280;59607;52.130;5.430;2023-02-19T02:37:17;101893.59;;;9.60;100.00
71774;BME280;59607;52.130;5.430;2023-02-19T02:39:47;101894.59;;;9.59;100.00
71774;BME280;59607;52.130;5.430;2023-02-19T02:42:18;101898.16;;;9.58;100.00
71774;BME280;59607;52.130;5.430;2023-02-19T02:45:22;101892.81;;;9.60;100.00
71774;BME280;59607;52.130;5.430;2023-02-19T02:51:29;101898.97;;;9.59;100.00
71774;BME280;59607;52.130;5.430;2023-02-19T02:54:18;101901.72;;;9.57;100.00
71774;BME280;59607;52.130;5.430;2023-02-19T02:57:08;101901.06;;;9.55;100.00
71774;BME280;59607;52.130;5.430;2023-02-19T02:59:43;101906.16;;;9.57;100.00
71774;BME280;59607;52.130;5.430;2023-02-19T03:02:17;101909.59;;;9.57;100.00
71774;BME280;59607;52.130;5.430;2023-02-19T03:05:19;101912.22;;;9.57;100.00
71774;BME280;59607;52.130;5.430;2023-02-19T03:08:51;101901.06;;;9.55;100.00
71774;BME280;59607;52.130;5.430;2023-02-19T03:11:19;101903.66;;;9.55;100.00
71774;BME280;59607;52.130;5.430;2023-02-19T03:14:09;101913.03;;;9.58;100.00
71774;BME280;59607;52.130;5.430;2023-02-19T03:17:04;101920.06;;;9.57;100.00
71774;BME280;59607;52.130;5.430;2023-02-19T03:20:34;101918.53;;;9.55;100.00
71774;BME280;59607;52.130;5.430;2023-02-19T03:23:21;101920.31;;;9.54;100.00
71774;BME280;59607;52.130;5.430;2023-02-19T03:26:28;101916.63;;;9.57;100.00
71774;BME280;59607;52.130;5.430;2023-02-19T03:29:10;101923.66;;;9.56;100.00
71774;BME280;59607;52.130;5.430;2023-02-19T03:31:55;101922.94;;;9.54;100.00
71774;BME280;59607;52.130;5.430;2023-02-19T03:34:33;101934.38;;;9.53;100.00
71774;BME280;59607;52.130;5.430;2023-02-19T03:37:15;101924.97;;;9.50;100.00
71774;BME280;59607;52.130;5.430;2023-02-19T03:39:43;101930.13;;;9.52;100.00
71774;BME280;59607;52.130;5.430;2023-02-19T03:45:46;101936.88;;;9.55;100.00
71774;BME280;59607;52.130;5.430;2023-02-19T03:48:35;101935.22;;;9.54;100.00
71774;BME280;59607;52.130;5.430;2023-02-19T03:51:38;101931.78;;;9.53;100.00
71774;BME280;59607;52.130;5.430;2023-02-19T03:54:34;101954.38;;;9.54;100.00
71774;BME280;59607;52.130;5.430;2023-02-19T03:59:53;101953.91;;;9.49;100.00
71774;BME280;59607;52.130;5.430;2023-02-19T04:05:32;101961.09;;;9.47;100.00
71774;BME280;59607;52.130;5.430;2023-02-19T04:08:12;101962.16;;;9.44;100.00
71774;BME280;59607;52.130;5.430;2023-02-19T04:10:48;101976.94;;;9.45;100.00
71774;BME280;59607;52.130;5.430;2023-02-19T04:13:32;101975.13;;;9.46;100.00
71774;BME280;59607;52.130;5.430;2023-02-19T04:16:08;101984.09;;;9.43;100.00
71774;BME280;59607;52.130;5.430;2023-02-19T04:18:42;101983.25;;;9.43;100.00
71774;BME280;59607;52.130;5.430;2023-02-19T04:21:15;101988.47;;;9.43;100.00
71774;BME280;59607;52.130;5.430;2023-02-19T04:23:43;101989.81;;;9.37;100.00
71774;BME280;59607;52.130;5.430;2023-02-19T04:26:16;101989.81;;;9.37;100.00
71774;BME280;59607;52.130;5.430;2023-02-19T04:28:42;101988.03;;;9.37;100.00
71774;BME280;59607;52.130;5.430;2023-02-19T04:31:10;101993.28;;;9.37;100.00
71774;BME280;59607;52.130;5.430;2023-02-19T04:33:40;101993.38;;;9.36;100.00
71774;BME280;59607;52.130;5.430;2023-02-19T04:36:08;101995.31;;;9.34;100.00
71774;BME280;59607;52.130;5.430;2023-02-19T04:38:54;102005.53;;;9.37;100.00
71774;BME280;59607;52.130;5.430;2023-02-19T04:41:26;102001.13;;;9.37;100.00
71774;BME280;59607;52.130;5.430;2023-02-19T04:43:54;102014.91;;;9.40;100.00
71774;BME280;59607;52.130;5.430;2023-02-19T04:46:23;102018.50;;;9.38;100.00
71774;BME280;59607;52.130;5.430;2023-02-19T04:48:52;102023.88;;;9.37;100.00
71774;BME280;59607;52.130;5.430;2023-02-19T04:51:18;102020.41;;;9.36;100.00
71774;BME280;59607;52.130;5.430;2023-02-19T04:53:48;102025.78;;;9.35;100.00
71774;BME280;59607;52.130;5.430;2023-02-19T04:56:18;102031.72;;;9.37;100.00
71774;BME280;59607;52.130;5.430;2023-02-19T04:58:44;102034.34;;;9.37;100.00
71774;BME280;59607;52.130;5.430;2023-02-19T05:01:21;102043.03;;;9.37;100.00
71774;BME280;59607;52.130;5.430;2023-02-19T05:03:47;102034.34;;;9.37;100.00
71774;BME280;59607;52.130;5.430;2023-02-19T05:06:30;102033.50;;;9.36;100.00
71774;BME280;59607;52.130;5.430;2023-02-19T05:09:00;102036.97;;;9.37;100.00
71774;BME280;59607;52.130;5.430;2023-02-19T05:11:26;102048.28;;;9.37;100.00
71774;BME280;59607;52.130;5.430;2023-02-19T05:13:54;102054.31;;;9.38;100.00
71774;BME280;59607;52.130;5.430;2023-02-19T05:16:26;102049.91;;;9.38;100.00
71774;BME280;59607;52.130;5.430;2023-02-19T05:18:52;102053.50;;;9.37;100.00
71774;BME280;59607;52.130;5.430;2023-02-19T05:21:26;102056.13;;;9.37;100.00
71774;BME280;59607;52.130;5.430;2023-02-19T05:23:53;102066.59;;;9.37;100.00
71774;BME280;59607;52.130;5.430;2023-02-19T05:26:25;102065.88;;;9.35;100.00
71774;BME280;59607;52.130;5.430;2023-02-19T05:29:00;102067.78;;;9.33;100.00
71774;BME280;59607;52.130;5.430;2023-02-19T05:31:32;102073.16;;;9.32;100.00
71774;BME280;59607;52.130;5.430;2023-02-19T05:33:59;102074.13;;;9.31;100.00
71774;BME280;59607;52.130;5.430;2023-02-19T05:36:25;102068.03;;;9.30;100.00
71774;BME280;59607;52.130;5.430;2023-02-19T05:38:57;102066.50;;;9.28;100.00
71774;BME280;59607;52.130;5.430;2023-02-19T05:41:25;102074.25;;;9.29;100.00
71774;BME280;59607;52.130;5.430;2023-02-19T05:43:53;102069.13;;;9.28;100.00
71774;BME280;59607;52.130;5.430;2023-02-19T05:46:22;102075.16;;;9.28;100.00
71774;BME280;59607;52.130;5.430;2023-02-19T05:48:52;102075.16;;;9.28;100.00
71774;BME280;59607;52.130;5.430;2023-02-19T05:51:35;102071.75;;;9.28;100.00
71774;BME280;59607;52.130;5.430;2023-02-19T05:54:05;102072.00;;;9.24;100.00
71774;BME280;59607;52.130;5.430;2023-02-19T05:56:37;102072.94;;;9.23;100.00
71774;BME280;59607;52.130;5.430;2023-02-19T05:59:20;102081.63;;;9.24;100.00
71774;BME280;59607;52.130;5.430;2023-02-19T06:01:52;102078.03;;;9.25;100.00
71774;BME280;59607;52.130;5.430;2023-02-19T06:04:25;102091.97;;;9.25;100.00
71774;BME280;59607;52.130;5.430;2023-02-19T06:06:52;102092.81;;;9.26;100.00
71774;BME280;59607;52.130;5.430;2023-02-19T06:09:18;102094.72;;;9.24;100.00
71774;BME280;59607;52.130;5.430;2023-02-19T06:11:44;102103.50;;;9.23;100.00
71774;BME280;59607;52.130;5.430;2023-02-19T06:14:16;102097.44;;;9.22;100.00
71774;BME280;59607;52.130;5.430;2023-02-19T06:16:42;102100.88;;;9.23;100.00
71774;BME280;59607;52.130;5.430;2023-02-19T06:19:09;102109.69;;;9.22;100.00
71774;BME280;59607;52.130;5.430;2023-02-19T06:21:41;102116.59;;;9.23;100.00
71774;BME280;59607;52.130;5.430;2023-02-19T06:24:08;102127.31;;;9.20;100.00
71774;BME280;59607;52.130;5.430;2023-02-19T06:26:34;102129.00;;;9.21;100.00
71774;BME280;59607;52.130;5.430;2023-02-19T06:29:01;102129.25;;;9.18;100.00
71774;BME280;59607;52.130;5.430;2023-02-19T06:31:31;102143.13;;;9.18;100.00
71774;BME280;59607;52.130;5.430;2023-02-19T06:34:03;102147.94;;;9.13;100.00
71774;BME280;59607;52.130;5.430;2023-02-19T06:36:39;102147.19;;;9.11;100.00
71774;BME280;59607;52.130;5.430;2023-02-19T06:39:11;102143.97;;;9.07;100.00
71774;BME280;59607;52.130;5.430;2023-02-19T06:41:37;102149.09;;;9.09;100.00
71774;BME280;59607;52.130;5.430;2023-02-19T06:44:14;102150.88;;;9.08;100.00
71774;BME280;59607;52.130;5.430;2023-02-19T06:46:41;102150.06;;;9.08;100.00
71774;BME280;59607;52.130;5.430;2023-02-19T06:49:11;102154.34;;;9.09;100.00
71774;BME280;59607;52.130;5.430;2023-02-19T06:51:37;102157.91;;;9.08;100.00
71774;BME280;59607;52.130;5.430;2023-02-19T06:54:03;102163.16;;;9.08;100.00
71774;BME280;59607;52.130;5.430;2023-02-19T06:56:40;102159.81;;;9.06;100.00
71774;BME280;59607;52.130;5.430;2023-02-19T06:59:18;102168.03;;;9.01;100.00
71774;BME280;59607;52.130;5.430;2023-02-19T07:01:58;102173.38;;;8.99;100.00
71774;BME280;59607;52.130;5.430;2023-02-19T07:04:24;102176.00;;;8.99;100.00
71774;BME280;59607;52.130;5.430;2023-02-19T07:06:51;102180.38;;;8.99;100.00
71774;BME280;59607;52.130;5.430;2023-02-19T07:09:23;102193.47;;;8.99;100.00
71774;BME280;59607;52.130;5.430;2023-02-19T07:11:53;102205.63;;;9.00;100.00
71774;BME280;59607;52.130;5.430;2023-02-19T07:14:20;102194.06;;;9.03;100.00
71774;BME280;59607;52.130;5.430;2023-02-19T07:17:04;102192.31;;;9.03;100.00
71774;BME280;59607;52.130;5.430;2023-02-19T07:19:33;102201.09;;;9.02;100.00
71774;BME280;59607;52.130;5.430;2023-02-19T07:21:59;102208.81;;;9.04;100.00
71774;BME280;59607;52.130;5.430;2023-02-19T07:24:26;102212.41;;;9.03;100.00
71774;BME280;59607;52.130;5.430;2023-02-19T07:26:58;102217.38;;;9.06;100.00
71774;BME280;59607;52.130;5.430;2023-02-19T07:29:25;102223.72;;;9.03;100.00
71774;BME280;59607;52.130;5.430;2023-02-19T07:32:01;102227.75;;;9.07;100.00
71774;BME280;59607;52.130;5.430;2023-02-19T07:34:28;102222.63;;;9.06;100.00
71774;BME280;59607;52.130;5.430;2023-02-19T07:36:57;102235.47;;;9.09;100.00
71774;BME280;59607;52.130;5.430;2023-02-19T07:39:23;102240.59;;;9.10;100.00
71774;BME280;59607;52.130;5.430;2023-02-19T07:41:49;102242.41;;;9.10;100.00
71774;BME280;59607;52.130;5.430;2023-02-19T07:44:22;102237.72;;;9.13;100.00
71774;BME280;59607;52.130;5.430;2023-02-19T07:46:48;102231.44;;;9.16;100.00
71774;BME280;59607;52.130;5.430;2023-02-19T07:49:15;102235.47;;;9.20;100.00
71774;BME280;59607;52.130;5.430;2023-02-19T07:51:41;102246.69;;;9.22;100.00
71774;BME280;59607;52.130;5.430;2023-02-19T07:54:14;102248.94;;;9.27;100.00
71774;BME280;59607;52.130;5.430;2023-02-19T07:56:41;102248.94;;;9.27;100.00
71774;BME280;59607;52.130;5.430;2023-02-19T07:59:07;102256.91;;;9.25;100.00
71774;BME280;59607;52.130;5.430;2023-02-19T08:01:37;102255.25;;;9.24;100.00
71774;BME280;59607;52.130;5.430;2023-02-19T08:04:22;102258.56;;;9.26;100.00
71774;BME280;59607;52.130;5.430;2023-02-19T08:06:48;102254.28;;;9.25;100.00
71774;BME280;59607;52.130;5.430;2023-02-19T08:09:34;102272.72;;;9.24;100.00
71774;BME280;59607;52.130;5.430;2023-02-19T08:12:10;102270.84;;;9.26;100.00
71774;BME280;59607;52.130;5.430;2023-02-19T08:14:59;102270.00;;;9.25;100.00
71774;BME280;59607;52.130;5.430;2023-02-19T08:17:25;102278.47;;;9.29;100.00
71774;BME280;59607;52.130;5.430;2023-02-19T08:19:52;102282.50;;;9.33;100.00
71774;BME280;59607;52.130;5.430;2023-02-19T08:22:24;102290.94;;;9.37;100.00
71774;BME280;59607;52.130;5.430;2023-02-19T08:24:53;102292.72;;;9.36;100.00
71774;BME280;59607;52.130;5.430;2023-02-19T08:27:19;102295.22;;;9.38;100.00
71774;BME280;59607;52.130;5.430;2023-02-19T08:29:48;102303.44;;;9.33;100.00
71774;BME280;59607;52.130;5.430;2023-02-19T08:32:17;102306.06;;;9.33;100.00
71774;BME280;59607;52.130;5.430;2023-02-19T08:34:45;102309.03;;;9.29;100.00
71774;BME280;59607;52.130;5.430;2023-02-19T08:37:17;102310.81;;;9.28;100.00
71774;BME280;59607;52.130;5.430;2023-02-19T08:39:44;102317.25;;;9.24;100.00
71774;BME280;59607;52.130;5.430;2023-02-19T08:42:20;102316.50;;;9.22;100.00
71774;BME280;59607;52.130;5.430;2023-02-19T08:44:47;102312.00;;;9.24;100.00
71774;BME280;59607;52.130;5.430;2023-02-19T08:47:16;102324.63;;;9.30;100.00
71774;BME280;59607;52.130;5.430;2023-02-19T08:49:45;102330.13;;;9.38;100.00
71774;BME280;59607;52.130;5.430;2023-02-19T08:52:11;102333.22;;;9.44;100.00
71774;BME280;59607;52.130;5.430;2023-02-19T08:54:42;102322.97;;;9.41;100.00
71774;BME280;59607;52.130;5.430;2023-02-19T08:57:15;102326.53;;;9.40;100.00
71774;BME280;59607;52.130;5.430;2023-02-19T08:59:57;102324.63;;;9.42;100.00
71774;BME280;59607;52.130;5.430;2023-02-19T09:02:24;102327.97;;;9.44;100.00
71774;BME280;59607;52.130;5.430;2023-02-19T09:04:53;102335.38;;;9.50;100.00
71774;BME280;59607;52.130;5.430;2023-02-19T09:07:20;102328.09;;;9.54;100.00
71774;BME280;59607;52.130;5.430;2023-02-19T09:09:54;102319.28;;;9.66;100.00
71774;BME280;59607;52.130;5.430;2023-02-19T09:12:20;102316.66;;;9.78;100.00
71774;BME280;59607;52.130;5.430;2023-02-19T09:14:47;102335.59;;;9.81;100.00
71774;BME280;59607;52.130;5.430;2023-02-19T09:17:19;102347.03;;;9.92;100.00
71774;BME280;59607;52.130;5.430;2023-02-19T09:19:46;102348.78;;;9.91;100.00
71774;BME280;59607;52.130;5.430;2023-02-19T09:22:16;102347.63;;;9.84;100.00
71774;BME280;59607;52.130;5.430;2023-02-19T09:24:45;102336.41;;;9.93;100.00
71774;BME280;59607;52.130;5.430;2023-02-19T09:27:19;102356.66;;;9.91;100.00
71774;BME280;59607;52.130;5.430;2023-02-19T09:29:48;102348.34;;;9.97;100.00
71774;BME280;59607;52.130;5.430;2023-02-19T09:32:16;102370.22;;;10.08;100.00
71774;BME280;59607;52.130;5.430;2023-02-19T09:34:45;102382.63;;;10.06;100.00
71774;BME280;59607;52.130;5.430;2023-02-19T09:37:15;102386.19;;;10.05;100.00
71774;BME280;59607;52.130;5.430;2023-02-19T09:39:41;102392.66;;;10.00;100.00
71774;BME280;59607;52.130;5.430;2023-02-19T09:42:17;102399.31;;;9.93;100.00
71774;BME280;59607;52.130;5.430;2023-02-19T09:44:54;102393.13;;;9.83;100.00
71774;BME280;59607;52.130;5.430;2023-02-19T09:47:24;102406.81;;;9.86;100.00
71774;BME280;59607;52.130;5.430;2023-02-19T09:50:03;102416.72;;;9.83;100.00
71774;BME280;59607;52.130;5.430;2023-02-19T09:52:40;102422.28;;;9.78;100.00
71774;BME280;59607;52.130;5.430;2023-02-19T09:55:29;102427.53;;;9.78;100.00
71774;BME280;59607;52.130;5.430;2023-02-19T09:58:13;102432.06;;;9.76;100.00
71774;BME280;59607;52.130;5.430;2023-02-19T10:00:48;102431.72;;;9.69;100.00
71774;BME280;59607;52.130;5.430;2023-02-19T10:03:28;102432.88;;;9.65;100.00
71774;BME280;59607;52.130;5.430;2023-02-19T10:06:22;102438.84;;;9.67;100.00
71774;BME280;59607;52.130;5.430;2023-02-19T10:08:56;102459.91;;;9.66;100.00
71774;BME280;59607;52.130;5.430;2023-02-19T10:11:31;102476.56;;;9.53;100.00
71774;BME280;59607;52.130;5.430;2023-02-19T10:14:12;102479.00;;;9.32;100.00
71774;BME280;59607;52.130;5.430;2023-02-19T10:16:42;102486.19;;;9.17;100.00
71774;BME280;59607;52.130;5.430;2023-02-19T10:19:15;102486.88;;;9.07;100.00
71774;BME280;59607;52.130;5.430;2023-02-19T10:21:42;102495.06;;;9.03;100.00
71774;BME280;59607;52.130;5.430;2023-02-19T10:24:19;102502.00;;;9.15;100.00
71774;BME280;59607;52.130;5.430;2023-02-19T10:26:49;102504.41;;;9.18;100.00
71774;BME280;59607;52.130;5.430;2023-02-19T10:29:20;102507.47;;;9.12;100.00
71774;BME280;59607;52.130;5.430;2023-02-19T10:31:47;102506.59;;;9.00;100.00
71774;BME280;59607;52.130;5.430;2023-02-19T10:34:20;102512.88;;;8.97;100.00
71774;BME280;59607;52.130;5.430;2023-02-19T10:36:49;102521.84;;;9.06;100.00
71774;BME280;59607;52.130;5.430;2023-02-19T10:39:48;102518.50;;;9.04;100.00
71774;BME280;59607;52.130;5.430;2023-02-19T10:42:22;102522.34;;;9.11;100.00
71774;BME280;59607;52.130;5.430;2023-02-19T10:44:55;102513.50;;;9.25;100.00
71774;BME280;59607;52.130;5.430;2023-02-19T10:47:30;102519.50;;;9.39;100.00
71774;BME280;59607;52.130;5.430;2023-02-19T10:49:59;102512.97;;;9.45;100.00
71774;BME280;59607;52.130;5.430;2023-02-19T10:52:41;102523.78;;;9.40;100.00
71774;BME280;59607;52.130;5.430;2023-02-19T10:55:35;102521.56;;;9.47;100.00
71774;BME280;59607;52.130;5.430;2023-02-19T10:58:24;102517.88;;;9.49;100.00
71774;BME280;59607;52.130;5.430;2023-02-19T11:01:28;102510.13;;;9.48;100.00
71774;BME280;59607;52.130;5.430;2023-02-19T11:04:20;102503.09;;;9.48;100.00
71774;BME280;59607;52.130;5.430;2023-02-19T11:06:46;102496.78;;;9.51;100.00
71774;BME280;59607;52.130;5.430;2023-02-19T11:09:29;102499.53;;;9.49;100.00
71774;BME280;59607;52.130;5.430;2023-02-19T11:11:59;102503.00;;;9.50;100.00
71774;BME280;59607;52.130;5.430;2023-02-19T11:14:34;102514.41;;;9.49;100.00
71774;BME280;59607;52.130;5.430;2023-02-19T11:17:22;102518.59;;;9.52;100.00
71774;BME280;59607;52.130;5.430;2023-02-19T11:20:01;102526.97;;;9.57;100.00
71774;BME280;59607;52.130;5.430;2023-02-19T11:22:32;102523.34;;;9.46;100.00
71774;BME280;59607;52.130;5.430;2023-02-19T11:25:26;102524.53;;;9.42;100.00
71774;BME280;59607;52.130;5.430;2023-02-19T11:28:23;102530.22;;;9.47;100.00
71774;BME280;59607;52.130;5.430;2023-02-19T11:31:26;102529.56;;;9.57;100.00
71774;BME280;59607;52.130;5.430;2023-02-19T11:36:33;102523.22;;;9.48;100.00
71774;BME280;59607;52.130;5.430;2023-02-19T11:50:49;102541.66;;;9.46;100.00
71774;BME280;59607;52.130;5.430;2023-02-19T11:59:24;102536.03;;;9.75;100.00
71774;BME280;59607;52.130;5.430;2023-02-19T12:17:31;102554.25;;;8.79;100.00
71774;BME280;59607;52.130;5.430;2023-02-19T12:26:45;102552.19;;;8.45;100.00
71774;BME280;59607;52.130;5.430;2023-02-19T12:33:23;102537.34;;;8.33;100.00
71774;BME280;59607;52.130;5.430;2023-02-19T12:38:21;102559.44;;;8.29;100.00
71774;BME280;59607;52.130;5.430;2023-02-19T12:41:17;102565.25;;;8.19;100.00
71774;BME280;59607;52.130;5.430;2023-02-19T12:46:42;102570.78;;;8.01;100.00
71774;BME280;59607;52.130;5.430;2023-02-19T12:49:18;102577.59;;;8.04;100.00
71774;BME280;59607;52.130;5.430;2023-02-19T12:52:08;102581.66;;;8.08;100.00
71774;BME280;59607;52.130;5.430;2023-02-19T12:54:48;102589.09;;;8.14;100.00
71774;BME280;59607;52.130;5.430;2023-02-19T12:57:27;102593.72;;;8.11;100.00
71774;BME280;59607;52.130;5.430;2023-02-19T13:00:30;102596.81;;;8.03;100.00
71774;BME280;59607;52.130;5.430;2023-02-19T13:03:21;102606.44;;;8.02;100.00
71774;BME280;59607;52.130;5.430;2023-02-19T13:05:54;102607.78;;;7.95;100.00
71774;BME280;59607;52.130;5.430;2023-02-19T13:08:53;102593.47;;;8.01;100.00
71774;BME280;59607;52.130;5.430;2023-02-19T13:11:39;102608.66;;;8.09;100.00
71774;BME280;59607;52.130;5.430;2023-02-19T13:14:36;102609.78;;;8.05;100.00
71774;BME280;59607;52.130;5.430;2023-02-19T13:17:28;102613.34;;;8.03;100.00
71774;BME280;59607;52.130;5.430;2023-02-19T13:34:42;102635.22;;;7.75;100.00
71774;BME280;59607;52.130;5.430;2023-02-19T13:37:14;102639.72;;;7.86;100.00
71774;BME280;59607;52.130;5.430;2023-02-19T13:39:51;102648.84;;;7.93;100.00
71774;BME280;59607;52.130;5.430;2023-02-19T13:42:30;102644.91;;;8.00;100.00
71774;BME280;59607;52.130;5.430;2023-02-19T13:44:58;102645.84;;;7.99;100.00
71774;BME280;59607;52.130;5.430;2023-02-19T13:50:28;102657.00;;;8.01;100.00
71774;BME280;59607;52.130;5.430;2023-02-19T13:52:59;102664.38;;;8.09;100.00
71774;BME280;59607;52.130;5.430;2023-02-19T14:01:03;102659.59;;;8.29;100.00
71774;BME280;59607;52.130;5.430;2023-02-19T14:06:05;102662.66;;;8.49;100.00
71774;BME280;59607;52.130;5.430;2023-02-19T14:08:55;102661.28;;;8.43;100.00
71774;BME280;59607;52.130;5.430;2023-02-19T14:14:27;102675.75;;;8.62;100.00
71774;BME280;59607;52.130;5.430;2023-02-19T14:16:56;102669.31;;;8.68;100.00
71774;BME280;59607;52.130;5.430;2023-02-19T14:25:34;102664.25;;;8.77;100.00
71774;BME280;59607;52.130;5.430;2023-02-19T14:30:59;102650.09;;;9.06;100.00
71774;BME280;59607;52.130;5.430;2023-02-19T14:33:32;102647.28;;;8.96;100.00
71774;BME280;59607;52.130;5.430;2023-02-19T14:41:44;102634.28;;;9.08;100.00
71774;BME280;59607;52.130;5.430;2023-02-19T14:45:05;102620.34;;;9.07;100.00
71774;BME280;59607;52.130;5.430;2023-02-19T14:47:26;102615.75;;;9.11;100.00
71774;BME280;59607;52.130;5.430;2023-02-19T14:50:07;102617.72;;;9.20;100.00
71774;BME280;59607;52.130;5.430;2023-02-19T14:52:42;102617.25;;;9.26;99.51
71774;BME280;59607;52.130;5.430;2023-02-19T14:55:19;102618.66;;;9.19;97.72
71774;BME280;59607;52.130;5.430;2023-02-19T14:57:53;102614.13;;;9.21;98.22
71774;BME280;59607;52.130;5.430;2023-02-19T15:02:55;102604.56;;;9.33;94.34
71774;BME280;59607;52.130;5.430;2023-02-19T15:05:40;102596.38;;;9.38;96.40
71774;BME280;59607;52.130;5.430;2023-02-19T15:08:34;102601.28;;;9.43;94.33
71774;BME280;59607;52.130;5.430;2023-02-19T15:11:03;102594.28;;;9.43;93.56
71774;BME280;59607;52.130;5.430;2023-02-19T15:13:54;102597.19;;;9.52;92.51
71774;BME280;59607;52.130;5.430;2023-02-19T15:16:25;102616.44;;;9.50;92.13
71774;BME280;59607;52.130;5.430;2023-02-19T15:18:54;102628.66;;;9.38;94.26
71774;BME280;59607;52.130;5.430;2023-02-19T15:21:30;102642.19;;;9.32;96.69
71774;BME280;59607;52.130;5.430;2023-02-19T15:24:05;102636.03;;;9.20;98.19
71774;BME280;59607;52.130;5.430;2023-02-19T15:26:36;102644.66;;;9.09;99.73
71774;BME280;59607;52.130;5.430;2023-02-19T15:29:14;102654.63;;;8.91;100.00